Audrey — WDF3335 — position and weather

sailwx.info

Track history (hours):
 
Tides and Currents Weather Stations Pressure Air Temp Water Temp Dewpoint Dewpoint Depression Visibility Wind Speed Wind Dir Waves Ship Positions

Audrey

Owner: G & H Towing Company, Galveston, TX. More information available from US FCC via Universal Licensing System and Coast Guard Vessel Documentation Center.

Last reported at 2017-Nov-17 17:11 UTC. Time now 2017-Nov-18 04:43 UTC.
Position N 29°45' W 095°04'.

Length 29 m; draft 4.5 m.

Type: Tug. MMSI: 367438690.

Date/timePositionNaut miles runAvg speedWind from/ knotsBaromVisibWave heightAir tempDewpointWater temp
2017-Nov-17 17:11N 29°45' W 095°04'1 8.0
2017-Nov-17 17:00N 29°44' W 095°03'4 7.6
2017-Nov-17 16:30N 29°41' W 094°59'1 1.5
2017-Nov-17 15:50N 29°41' W 095°00'0 0.2
2017-Nov-17 15:30N 29°41' W 095°00'2 3.6
2017-Nov-17 15:00N 29°40' W 094°59'1 2.1
2017-Nov-17 14:28N 29°41' W 094°59'0 0.0
2017-Nov-17 13:58N 29°41' W 094°59'0 0.0
2017-Nov-17 13:28N 29°41' W 094°59'0 0.0
2017-Nov-17 12:58N 29°41' W 094°59'0 0.0
2017-Nov-17 12:27N 29°41' W 094°59'0 0.5
2017-Nov-17 11:58N 29°41' W 094°59'0 0.5
2017-Nov-17 11:25N 29°41' W 094°60'0 0.0
2017-Nov-17 10:58N 29°41' W 094°60'0 0.0
2017-Nov-17 10:28N 29°41' W 094°60'0 0.0
2017-Nov-17 09:58N 29°41' W 094°60'0 0.0
2017-Nov-17 09:28N 29°41' W 094°60'0 0.1
2017-Nov-17 08:55N 29°41' W 094°60'0 0.0
2017-Nov-17 08:28N 29°41' W 094°60'0 0.0
2017-Nov-17 07:58N 29°41' W 094°60'0 0.8
2017-Nov-17 07:29N 29°41' W 095°00'0 0.2
2017-Nov-17 06:59N 29°41' W 095°00'0 0.1
2017-Nov-17 06:30N 29°41' W 095°00'0 0.9
2017-Nov-17 06:01N 29°41' W 094°60'1 1.4
2017-Nov-17 05:31N 29°41' W 094°59'5 3.4
2017-Nov-17 04:10N 29°44' W 095°03'1 4.7
2017-Nov-17 03:52N 29°44' W 095°02'1 3.7
2017-Nov-17 03:30N 29°42' W 095°01'4 8.9
2017-Nov-17 03:00N 29°39' W 094°58'3 5.9
2017-Nov-17 02:31N 29°37' W 095°00'0 0.0
2017-Nov-17 02:00N 29°37' W 095°00'0 0.0
2017-Nov-17 01:30N 29°37' W 095°00'0 0.0
2017-Nov-17 01:00N 29°37' W 095°00'0 0.0
2017-Nov-17 00:30N 29°37' W 095°00'0 0.0
2017-Nov-17 00:00N 29°37' W 095°00'0 0.2
2017-Nov-16 23:30N 29°37' W 095°00'0 0.8
2017-Nov-16 23:00N 29°37' W 095°01'3 6.2
2017-Nov-16 22:30N 29°37' W 094°57'1 2.5
2017-Nov-16 22:00N 29°36' W 094°57'4 8.8
2017-Nov-16 21:30N 29°37' W 095°01'0 0.1
2017-Nov-16 21:00N 29°37' W 095°02'1 2.5
2017-Nov-16 20:30N 29°37' W 095°00'0 0.1
2017-Nov-16 19:57N 29°37' W 095°00'0 0.2
2017-Nov-16 19:28N 29°37' W 094°60'0 0.2
2017-Nov-16 19:00N 29°37' W 095°00'0 0.1
2017-Nov-16 18:30N 29°37' W 094°60'0 0.9
2017-Nov-16 18:00N 29°37' W 094°59'3 6.5
2017-Nov-16 17:30N 29°40' W 094°59'1 2.7
2017-Nov-16 17:00N 29°41' W 094°60'0 0.0
2017-Nov-16 16:30N 29°41' W 094°60'0 0.0
2017-Nov-16 16:00N 29°41' W 094°60'0 0.0
2017-Nov-16 15:30N 29°41' W 094°60'0 0.0
2017-Nov-16 15:00N 29°41' W 094°60'0 0.0
2017-Nov-16 14:30N 29°41' W 094°60'0 0.4
2017-Nov-16 14:00N 29°41' W 094°60'0 0.0
2017-Nov-16 13:30N 29°41' W 094°60'0 0.2
2017-Nov-16 13:00N 29°41' W 094°60'0 0.8
2017-Nov-16 12:30N 29°41' W 094°59'8 5.1
2017-Nov-16 11:00N 29°44' W 095°07'0 0.0
2017-Nov-16 10:30N 29°44' W 095°07'2 1.0
2017-Nov-16 08:08N 29°46' W 095°05'2 6.9
2017-Nov-16 07:49N 29°44' W 095°03'2 3.8
2017-Nov-16 07:21N 29°44' W 095°01'0 0.0
2017-Nov-16 07:00N 29°44' W 095°01'2 0.3
2017-Nov-16 01:50N 29°42' W 095°01'0 0.0
2017-Nov-16 01:31N 29°42' W 095°01'2 2.2
2017-Nov-16 00:26N 29°44' W 095°03'2 4.0
2017-Nov-15 23:58N 29°43' W 095°01'2 5.1
2017-Nov-15 23:30N 29°41' W 094°60'0 0.4
2017-Nov-15 23:00N 29°41' W 095°00'0 0.0
2017-Nov-15 22:30N 29°41' W 095°00'0 0.0
2017-Nov-15 22:00N 29°41' W 095°00'0 0.0
2017-Nov-15 21:27N 29°41' W 095°00'0 0.0
2017-Nov-15 21:00N 29°41' W 095°00'0 0.0
2017-Nov-15 20:27N 29°41' W 095°00'0 0.9
2017-Nov-15 20:00N 29°41' W 095°01'0 0.0
2017-Nov-15 19:18N 29°41' W 095°00'1 0.9
2017-Nov-15 18:34N 29°41' W 094°60'0 0.0
2017-Nov-15 18:25N 29°41' W 094°60'0 0.0
2017-Nov-15 17:58N 29°41' W 094°60'0 0.0
2017-Nov-15 17:16N 29°41' W 094°60'0 0.0
2017-Nov-15 16:49N 29°41' W 094°60'0 0.0
2017-Nov-15 16:28N 29°41' W 094°60'0 0.0
2017-Nov-15 16:00N 29°41' W 094°60'2 3.6
2017-Nov-15 15:30N 29°42' W 095°01'0 0.0
2017-Nov-15 15:00N 29°42' W 095°01'0 0.0
2017-Nov-15 14:27N 29°42' W 095°01'0 0.0
2017-Nov-15 13:59N 29°42' W 095°01'0 0.0
2017-Nov-15 13:30N 29°42' W 095°01'0 0.0
2017-Nov-15 13:00N 29°42' W 095°01'0 0.0
2017-Nov-15 12:30N 29°42' W 095°01'1 2.3
2017-Nov-15 11:51N 29°44' W 095°01'2 5.6
2017-Nov-15 11:30N 29°42' W 095°00'510.3
2017-Nov-15 11:00N 29°37' W 094°58'3 6.3
2017-Nov-15 10:30N 29°37' W 095°01'0 0.0
2017-Nov-15 10:00N 29°37' W 095°01'0 0.0
2017-Nov-15 09:30N 29°37' W 095°01'0 0.0
2017-Nov-15 09:00N 29°37' W 095°01'0 0.0
2017-Nov-15 08:30N 29°37' W 095°01'0 0.0
2017-Nov-15 08:00N 29°37' W 095°01'0 0.0
2017-Nov-15 07:30N 29°37' W 095°01'1 1.7
2017-Nov-15 07:00N 29°37' W 095°00'0 0.2
2017-Nov-15 06:30N 29°37' W 095°00'0 0.1
2017-Nov-15 06:00N 29°37' W 095°00'0 0.0
2017-Nov-15 05:30N 29°37' W 095°00'0 0.0
2017-Nov-15 05:00N 29°37' W 095°00'0 0.0
2017-Nov-15 04:30N 29°37' W 095°00'1 1.1
2017-Nov-15 04:00N 29°37' W 094°59'1 2.9
2017-Nov-15 03:30N 29°37' W 095°01'0 0.0
2017-Nov-15 03:00N 29°37' W 095°01'0 0.0
2017-Nov-15 02:30N 29°37' W 095°01'0 0.0
2017-Nov-15 02:00N 29°37' W 095°01'0 0.8
2017-Nov-15 01:30N 29°37' W 095°02'0 0.1
2017-Nov-15 01:00N 29°37' W 095°02'1 2.6
2017-Nov-15 00:30N 29°37' W 095°00'2 3.3
2017-Nov-15 00:00N 29°37' W 094°58'5 9.0
2017-Nov-14 23:29N 29°41' W 094°59'2 3.2
2017-Nov-14 22:45N 29°43' W 095°01'1 0.2
2017-Nov-14 19:30N 29°42' W 095°01'1 0.6
2017-Nov-14 18:03N 29°43' W 095°01'0 4.4
2017-Nov-14 17:58N 29°43' W 095°01'0 0.9
2017-Nov-14 17:28N 29°42' W 095°01'0 0.0
2017-Nov-14 16:58N 29°42' W 095°01'0 0.0
2017-Nov-14 16:28N 29°42' W 095°01'0 0.0
2017-Nov-14 15:55N 29°42' W 095°01'0 0.0
2017-Nov-14 15:25N 29°42' W 095°01'0 0.0
2017-Nov-14 14:58N 29°42' W 095°01'0 0.0
2017-Nov-14 14:28N 29°42' W 095°01'0 0.0
2017-Nov-14 13:58N 29°42' W 095°01'0 0.0
2017-Nov-14 13:28N 29°42' W 095°01'0 0.0
2017-Nov-14 12:58N 29°42' W 095°01'0 0.0
2017-Nov-14 12:28N 29°42' W 095°01'0 0.0
2017-Nov-14 11:58N 29°42' W 095°01'0 0.0
2017-Nov-14 11:28N 29°42' W 095°01'0 0.0
2017-Nov-14 10:58N 29°42' W 095°01'0 0.0
2017-Nov-14 10:28N 29°42' W 095°01'0 0.0
2017-Nov-14 09:58N 29°42' W 095°01'0 0.0
2017-Nov-14 09:28N 29°42' W 095°01'0 0.0
2017-Nov-14 08:55N 29°42' W 095°01'2 4.9
2017-Nov-14 08:30N 29°41' W 094°59'611.0
2017-Nov-14 07:59N 29°36' W 094°57'511.2
2017-Nov-14 07:30N 29°31' W 094°53'1 0.2
2017-Nov-14 04:20N 29°32' W 094°54'411.7
2017-Nov-14 04:00N 29°35' W 094°56'3 6.2
2017-Nov-14 03:30N 29°37' W 094°59'1 2.4
2017-Nov-14 03:00N 29°37' W 095°01'0 0.9
2017-Nov-14 02:28N 29°37' W 095°01'0 0.0
2017-Nov-14 01:58N 29°37' W 095°01'0 0.0
2017-Nov-14 01:28N 29°37' W 095°01'0 0.0
2017-Nov-14 00:58N 29°37' W 095°01'0 0.0
2017-Nov-14 00:30N 29°37' W 095°01'0 0.7
2017-Nov-14 00:00N 29°37' W 095°02'1 1.3
2017-Nov-13 23:30N 29°37' W 095°01'2 3.5
2017-Nov-13 23:00N 29°37' W 094°59'4 7.5
2017-Nov-13 22:30N 29°41' W 094°59'8 0.4
2017-Nov-13 02:00N 29°45' W 095°07'0 0.0
2017-Nov-13 01:30N 29°45' W 095°07'3 4.9
2017-Nov-13 00:56N 29°45' W 095°10'0 0.0
2017-Nov-13 00:29N 29°45' W 095°10'1 2.6
2017-Nov-12 23:58N 29°44' W 095°08'2 0.6
2017-Nov-12 21:08N 29°44' W 095°07'1 8.6
2017-Nov-12 20:59N 29°45' W 095°06'4 3.0
2017-Nov-12 19:36N 29°44' W 095°01'0 1.2
2017-Nov-12 19:30N 29°44' W 095°01'1 2.4
2017-Nov-12 18:59N 29°42' W 095°01'0 0.0
2017-Nov-12 18:26N 29°42' W 095°01'1 3.1
2017-Nov-12 17:57N 29°44' W 095°01'1 2.4
2017-Nov-12 17:25N 29°42' W 095°01'0 0.4
2017-Nov-12 17:00N 29°42' W 095°01'0 0.0
2017-Nov-12 16:30N 29°42' W 095°01'0 0.0
2017-Nov-12 16:00N 29°42' W 095°01'0 0.3
2017-Nov-12 15:30N 29°42' W 095°01'0 0.0
2017-Nov-12 14:39N 29°42' W 095°01'0 1.0
2017-Nov-12 14:29N 29°42' W 095°01'0 0.0
2017-Nov-12 14:00N 29°42' W 095°01'0 0.0
2017-Nov-12 13:30N 29°42' W 095°01'0 0.0
2017-Nov-12 12:59N 29°42' W 095°01'4 9.1
2017-Nov-12 12:30N 29°39' W 094°58'3 3.3
2017-Nov-12 11:43N 29°37' W 094°60'1 5.9
2017-Nov-12 11:30N 29°37' W 094°59'4 7.8
2017-Nov-12 11:00N 29°41' W 094°59'3 0.6
2017-Nov-12 06:27N 29°42' W 095°01'0 0.0
2017-Nov-12 05:57N 29°42' W 095°01'0 0.0
2017-Nov-12 05:06N 29°42' W 095°01'0 0.0
2017-Nov-12 05:00N 29°42' W 095°01'0 0.0
2017-Nov-12 04:21N 29°42' W 095°01'0 0.0
2017-Nov-12 03:00N 29°42' W 095°01'0 0.0
2017-Nov-12 01:48N 29°42' W 095°01'0 0.0
2017-Nov-12 01:30N 29°42' W 095°01'0 0.0
2017-Nov-11 22:50N 29°42' W 095°01'1 1.5
2017-Nov-11 21:50N 29°44' W 095°01'1 3.1
2017-Nov-11 21:24N 29°42' W 095°01'2 4.3
2017-Nov-11 21:00N 29°41' W 094°60'1 0.9
2017-Nov-11 20:26N 29°41' W 095°01'1 2.5
2017-Nov-11 19:58N 29°42' W 095°00'1 1.0
2017-Nov-11 19:21N 29°42' W 095°01'0 0.0
2017-Nov-11 13:59N 29°42' W 095°01'6 1.3
2017-Nov-11 09:04N 29°44' W 095°08'1 8.9
2017-Nov-11 08:59N 29°44' W 095°09'2 1.3
2017-Nov-11 07:41N 29°45' W 095°11'0 1.6
2017-Nov-11 07:24N 29°45' W 095°10'1 3.3
2017-Nov-11 07:00N 29°44' W 095°09'1 1.9
2017-Nov-11 06:20N 29°45' W 095°10'0 0.0
2017-Nov-11 05:29N 29°45' W 095°10'1 0.9
2017-Nov-11 04:10N 29°45' W 095°11'0 0.2
2017-Nov-11 03:59N 29°45' W 095°11'1 2.9
2017-Nov-11 03:29N 29°45' W 095°10'0 0.9
2017-Nov-11 03:01N 29°45' W 095°10'0 0.0
2017-Nov-11 02:30N 29°45' W 095°10'0 0.7
2017-Nov-11 02:00N 29°45' W 095°10'3 0.6
2017-Nov-10 21:33N 29°45' W 095°07'0 0.0
2017-Nov-10 21:15N 29°45' W 095°07'0 0.0
2017-Nov-10 20:53N 29°45' W 095°07'0 0.0
2017-Nov-10 20:30N 29°45' W 095°07'0 0.0
2017-Nov-10 19:48N 29°45' W 095°07'0 0.0
2017-Nov-10 19:28N 29°45' W 095°07'0 0.2
2017-Nov-10 18:48N 29°45' W 095°06'3 5.4
2017-Nov-10 18:19N 29°44' W 095°03'3 7.1
2017-Nov-10 17:56N 29°42' W 095°01'2 4.1
2017-Nov-10 17:30N 29°41' W 095°00'0 0.2
2017-Nov-10 17:00N 29°41' W 095°00'2 3.6
2017-Nov-10 16:30N 29°40' W 094°59'1 2.3
2017-Nov-10 16:00N 29°41' W 094°59'0 0.0
2017-Nov-10 15:30N 29°41' W 094°59'0 0.0
2017-Nov-10 15:00N 29°41' W 094°59'0 0.0
2017-Nov-10 14:30N 29°41' W 094°59'0 0.0
2017-Nov-10 14:00N 29°41' W 094°59'0 0.1
2017-Nov-10 13:30N 29°41' W 094°59'1 2.0
2017-Nov-10 13:00N 29°41' W 095°00'2 3.3
2017-Nov-10 12:30N 29°42' W 095°01'5 7.4
2017-Nov-10 11:50N 29°45' W 095°05'2 0.2
2017-Nov-10 00:45N 29°44' W 095°08'0 0.2
2017-Nov-09 23:52N 29°44' W 095°08'0 0.0
2017-Nov-09 23:23N 29°44' W 095°08'0 0.0
2017-Nov-09 17:16N 29°44' W 095°08'0 0.0
2017-Nov-09 16:57N 29°44' W 095°08'1 0.3
2017-Nov-09 13:51N 29°44' W 095°07'3 5.6
2017-Nov-09 13:21N 29°44' W 095°03'3 7.6
2017-Nov-09 12:59N 29°42' W 095°01'3 6.3
2017-Nov-09 12:30N 29°40' W 094°59'3 5.5
2017-Nov-09 11:59N 29°42' W 095°01'0 0.0
2017-Nov-09 11:29N 29°42' W 095°01'0 0.0
2017-Nov-09 10:59N 29°42' W 095°01'0 0.0
2017-Nov-09 10:29N 29°42' W 095°01'0 0.0
2017-Nov-09 09:47N 29°42' W 095°01'0 0.0
2017-Nov-09 09:23N 29°42' W 095°01'0 0.0
2017-Nov-09 08:29N 29°42' W 095°01'0 0.0
2017-Nov-09 07:11N 29°42' W 095°01'0 0.0
2017-Nov-09 06:53N 29°42' W 095°01'0 0.0
2017-Nov-09 06:29N 29°42' W 095°01'0 0.0
2017-Nov-09 05:47N 29°42' W 095°01'0 0.0
2017-Nov-09 05:29N 29°42' W 095°01'0 0.7
2017-Nov-09 05:00N 29°43' W 095°01'5 1.7
2017-Nov-09 02:14N 29°46' W 095°05'2 7.9
2017-Nov-09 01:58N 29°44' W 095°03'2 1.5
2017-Nov-09 00:39N 29°44' W 095°01'2 3.3
2017-Nov-09 00:10N 29°42' W 095°01'0 0.7
2017-Nov-08 23:52N 29°42' W 095°01'0 0.0
2017-Nov-08 23:04N 29°42' W 095°01'0 0.0
2017-Nov-08 22:55N 29°42' W 095°01'0 0.0
2017-Nov-08 22:19N 29°42' W 095°01'0 0.0
2017-Nov-08 21:58N 29°42' W 095°01'0 0.2
2017-Nov-08 21:30N 29°42' W 095°01'0 0.1
2017-Nov-08 20:47N 29°42' W 095°01'3 8.0
2017-Nov-08 20:25N 29°44' W 095°03'2 3.9
2017-Nov-08 19:48N 29°45' W 095°06'0 0.0
2017-Nov-08 19:29N 29°45' W 095°06'2 3.2
2017-Nov-08 18:44N 29°44' W 095°03'2 7.7
2017-Nov-08 18:30N 29°44' W 095°02'2 4.3
2017-Nov-08 17:58N 29°42' W 094°60'1 2.3
2017-Nov-08 17:30N 29°41' W 094°60'0 0.2
2017-Nov-08 17:00N 29°41' W 095°00'2 3.8
2017-Nov-08 16:28N 29°39' W 094°58'4 7.7
2017-Nov-08 15:59N 29°42' W 095°01'0 0.0
2017-Nov-08 15:22N 29°42' W 095°01'0 0.0
2017-Nov-08 14:55N 29°42' W 095°01'0 0.0
2017-Nov-08 13:31N 29°42' W 095°01'0 0.0
2017-Nov-08 13:28N 29°42' W 095°01'0 0.0
2017-Nov-08 12:49N 29°42' W 095°01'0 0.0
2017-Nov-08 12:25N 29°42' W 095°01'0 0.0
2017-Nov-08 11:59N 29°42' W 095°01'2 2.2
2017-Nov-08 10:52N 29°44' W 095°03'2 1.9
2017-Nov-08 09:48N 29°43' W 095°01'1 1.1
2017-Nov-08 08:58N 29°44' W 095°01'3 5.4
2017-Nov-08 08:30N 29°42' W 094°60'1 0.1
2017-Nov-08 00:02N 29°41' W 094°59'0 0.3
2017-Nov-07 23:56N 29°41' W 094°59'0 0.9
2017-Nov-07 23:28N 29°41' W 094°60'1 1.6
2017-Nov-07 23:00N 29°41' W 094°59'4 6.7
2017-Nov-07 22:26N 29°37' W 094°59'1 2.3
2017-Nov-07 21:54N 29°37' W 095°00'0 0.0
2017-Nov-07 21:27N 29°37' W 095°00'0 0.0
2017-Nov-07 21:00N 29°37' W 095°00'0 0.0
2017-Nov-07 20:30N 29°37' W 095°00'0 0.0
2017-Nov-07 20:00N 29°37' W 095°00'1 0.7
2017-Nov-07 18:59N 29°37' W 094°59'1 2.2
2017-Nov-07 18:30N 29°37' W 095°01'1 1.0
2017-Nov-07 18:00N 29°37' W 095°01'0 0.0
2017-Nov-07 17:30N 29°37' W 095°01'  
Track history (hours):
 
Tides and Currents Weather Stations Pressure Air Temp Water Temp Dewpoint Dewpoint Depression Visibility Wind Speed Wind Dir Waves Ship Positions

Audrey

Owner: G & H Towing Company, Galveston, TX. More information available from US FCC via Universal Licensing System and Coast Guard Vessel Documentation Center.

Last reported at 2017-Nov-17 17:11 UTC. Time now 2017-Nov-18 04:43 UTC.
Position N 29°45' W 095°04'.

Length 29 m; draft 4.5 m.

Type: Tug. MMSI: 367438690.

Date/timePositionNaut miles runAvg speedWind from/ knotsBaromVisibWave heightAir tempDewpointWater temp
2017-Nov-17 17:11N 29°45' W 095°04'1 8.0
2017-Nov-17 17:00N 29°44' W 095°03'4 7.6
2017-Nov-17 16:30N 29°41' W 094°59'1 1.5
2017-Nov-17 15:50N 29°41' W 095°00'0 0.2
2017-Nov-17 15:30N 29°41' W 095°00'2 3.6
2017-Nov-17 15:00N 29°40' W 094°59'1 2.1
2017-Nov-17 14:28N 29°41' W 094°59'0 0.0
2017-Nov-17 13:58N 29°41' W 094°59'0 0.0
2017-Nov-17 13:28N 29°41' W 094°59'0 0.0
2017-Nov-17 12:58N 29°41' W 094°59'0 0.0
2017-Nov-17 12:27N 29°41' W 094°59'0 0.5
2017-Nov-17 11:58N 29°41' W 094°59'0 0.5
2017-Nov-17 11:25N 29°41' W 094°60'0 0.0
2017-Nov-17 10:58N 29°41' W 094°60'0 0.0
2017-Nov-17 10:28N 29°41' W 094°60'0 0.0
2017-Nov-17 09:58N 29°41' W 094°60'0 0.0
2017-Nov-17 09:28N 29°41' W 094°60'0 0.1
2017-Nov-17 08:55N 29°41' W 094°60'0 0.0
2017-Nov-17 08:28N 29°41' W 094°60'0 0.0
2017-Nov-17 07:58N 29°41' W 094°60'0 0.8
2017-Nov-17 07:29N 29°41' W 095°00'0 0.2
2017-Nov-17 06:59N 29°41' W 095°00'0 0.1
2017-Nov-17 06:30N 29°41' W 095°00'0 0.9
2017-Nov-17 06:01N 29°41' W 094°60'1 1.4
2017-Nov-17 05:31N 29°41' W 094°59'5 3.4
2017-Nov-17 04:10N 29°44' W 095°03'1 4.7
2017-Nov-17 03:52N 29°44' W 095°02'1 3.7
2017-Nov-17 03:30N 29°42' W 095°01'4 8.9
2017-Nov-17 03:00N 29°39' W 094°58'3 5.9
2017-Nov-17 02:31N 29°37' W 095°00'0 0.0
2017-Nov-17 02:00N 29°37' W 095°00'0 0.0
2017-Nov-17 01:30N 29°37' W 095°00'0 0.0
2017-Nov-17 01:00N 29°37' W 095°00'0 0.0
2017-Nov-17 00:30N 29°37' W 095°00'0 0.0
2017-Nov-17 00:00N 29°37' W 095°00'0 0.2
2017-Nov-16 23:30N 29°37' W 095°00'0 0.8
2017-Nov-16 23:00N 29°37' W 095°01'3 6.2
2017-Nov-16 22:30N 29°37' W 094°57'1 2.5
2017-Nov-16 22:00N 29°36' W 094°57'4 8.8
2017-Nov-16 21:30N 29°37' W 095°01'0 0.1
2017-Nov-16 21:00N 29°37' W 095°02'1 2.5
2017-Nov-16 20:30N 29°37' W 095°00'0 0.1
2017-Nov-16 19:57N 29°37' W 095°00'0 0.2
2017-Nov-16 19:28N 29°37' W 094°60'0 0.2
2017-Nov-16 19:00N 29°37' W 095°00'0 0.1
2017-Nov-16 18:30N 29°37' W 094°60'0 0.9
2017-Nov-16 18:00N 29°37' W 094°59'3 6.5
2017-Nov-16 17:30N 29°40' W 094°59'1 2.7
2017-Nov-16 17:00N 29°41' W 094°60'0 0.0
2017-Nov-16 16:30N 29°41' W 094°60'0 0.0
2017-Nov-16 16:00N 29°41' W 094°60'0 0.0
2017-Nov-16 15:30N 29°41' W 094°60'0 0.0
2017-Nov-16 15:00N 29°41' W 094°60'0 0.0
2017-Nov-16 14:30N 29°41' W 094°60'0 0.4
2017-Nov-16 14:00N 29°41' W 094°60'0 0.0
2017-Nov-16 13:30N 29°41' W 094°60'0 0.2
2017-Nov-16 13:00N 29°41' W 094°60'0 0.8
2017-Nov-16 12:30N 29°41' W 094°59'8 5.1
2017-Nov-16 11:00N 29°44' W 095°07'0 0.0
2017-Nov-16 10:30N 29°44' W 095°07'2 1.0
2017-Nov-16 08:08N 29°46' W 095°05'2 6.9
2017-Nov-16 07:49N 29°44' W 095°03'2 3.8
2017-Nov-16 07:21N 29°44' W 095°01'0 0.0
2017-Nov-16 07:00N 29°44' W 095°01'2 0.3
2017-Nov-16 01:50N 29°42' W 095°01'0 0.0
2017-Nov-16 01:31N 29°42' W 095°01'2 2.2
2017-Nov-16 00:26N 29°44' W 095°03'2 4.0
2017-Nov-15 23:58N 29°43' W 095°01'2 5.1
2017-Nov-15 23:30N 29°41' W 094°60'0 0.4
2017-Nov-15 23:00N 29°41' W 095°00'0 0.0
2017-Nov-15 22:30N 29°41' W 095°00'0 0.0
2017-Nov-15 22:00N 29°41' W 095°00'0 0.0
2017-Nov-15 21:27N 29°41' W 095°00'0 0.0
2017-Nov-15 21:00N 29°41' W 095°00'0 0.0
2017-Nov-15 20:27N 29°41' W 095°00'0 0.9
2017-Nov-15 20:00N 29°41' W 095°01'0 0.0
2017-Nov-15 19:18N 29°41' W 095°00'1 0.9
2017-Nov-15 18:34N 29°41' W 094°60'0 0.0
2017-Nov-15 18:25N 29°41' W 094°60'0 0.0
2017-Nov-15 17:58N 29°41' W 094°60'0 0.0
2017-Nov-15 17:16N 29°41' W 094°60'0 0.0
2017-Nov-15 16:49N 29°41' W 094°60'0 0.0
2017-Nov-15 16:28N 29°41' W 094°60'0 0.0
2017-Nov-15 16:00N 29°41' W 094°60'2 3.6
2017-Nov-15 15:30N 29°42' W 095°01'0 0.0
2017-Nov-15 15:00N 29°42' W 095°01'0 0.0
2017-Nov-15 14:27N 29°42' W 095°01'0 0.0
2017-Nov-15 13:59N 29°42' W 095°01'0 0.0
2017-Nov-15 13:30N 29°42' W 095°01'0 0.0
2017-Nov-15 13:00N 29°42' W 095°01'0 0.0
2017-Nov-15 12:30N 29°42' W 095°01'1 2.3
2017-Nov-15 11:51N 29°44' W 095°01'2 5.6
2017-Nov-15 11:30N 29°42' W 095°00'510.3
2017-Nov-15 11:00N 29°37' W 094°58'3 6.3
2017-Nov-15 10:30N 29°37' W 095°01'0 0.0
2017-Nov-15 10:00N 29°37' W 095°01'0 0.0
2017-Nov-15 09:30N 29°37' W 095°01'0 0.0
2017-Nov-15 09:00N 29°37' W 095°01'0 0.0
2017-Nov-15 08:30N 29°37' W 095°01'0 0.0
2017-Nov-15 08:00N 29°37' W 095°01'0 0.0
2017-Nov-15 07:30N 29°37' W 095°01'1 1.7
2017-Nov-15 07:00N 29°37' W 095°00'0 0.2
2017-Nov-15 06:30N 29°37' W 095°00'0 0.1
2017-Nov-15 06:00N 29°37' W 095°00'0 0.0
2017-Nov-15 05:30N 29°37' W 095°00'0 0.0
2017-Nov-15 05:00N 29°37' W 095°00'0 0.0
2017-Nov-15 04:30N 29°37' W 095°00'1 1.1
2017-Nov-15 04:00N 29°37' W 094°59'1 2.9
2017-Nov-15 03:30N 29°37' W 095°01'0 0.0
2017-Nov-15 03:00N 29°37' W 095°01'0 0.0
2017-Nov-15 02:30N 29°37' W 095°01'0 0.0
2017-Nov-15 02:00N 29°37' W 095°01'0 0.8
2017-Nov-15 01:30N 29°37' W 095°02'0 0.1
2017-Nov-15 01:00N 29°37' W 095°02'1 2.6
2017-Nov-15 00:30N 29°37' W 095°00'2 3.3
2017-Nov-15 00:00N 29°37' W 094°58'5 9.0
2017-Nov-14 23:29N 29°41' W 094°59'2 3.2
2017-Nov-14 22:45N 29°43' W 095°01'1 0.2
2017-Nov-14 19:30N 29°42' W 095°01'1 0.6
2017-Nov-14 18:03N 29°43' W 095°01'0 4.4
2017-Nov-14 17:58N 29°43' W 095°01'0 0.9
2017-Nov-14 17:28N 29°42' W 095°01'0 0.0
2017-Nov-14 16:58N 29°42' W 095°01'0 0.0
2017-Nov-14 16:28N 29°42' W 095°01'0 0.0
2017-Nov-14 15:55N 29°42' W 095°01'0 0.0
2017-Nov-14 15:25N 29°42' W 095°01'0 0.0
2017-Nov-14 14:58N 29°42' W 095°01'0 0.0
2017-Nov-14 14:28N 29°42' W 095°01'0 0.0
2017-Nov-14 13:58N 29°42' W 095°01'0 0.0
2017-Nov-14 13:28N 29°42' W 095°01'0 0.0
2017-Nov-14 12:58N 29°42' W 095°01'0 0.0
2017-Nov-14 12:28N 29°42' W 095°01'0 0.0
2017-Nov-14 11:58N 29°42' W 095°01'0 0.0
2017-Nov-14 11:28N 29°42' W 095°01'0 0.0
2017-Nov-14 10:58N 29°42' W 095°01'0 0.0
2017-Nov-14 10:28N 29°42' W 095°01'0 0.0
2017-Nov-14 09:58N 29°42' W 095°01'0 0.0
2017-Nov-14 09:28N 29°42' W 095°01'0 0.0
2017-Nov-14 08:55N 29°42' W 095°01'2 4.9
2017-Nov-14 08:30N 29°41' W 094°59'611.0
2017-Nov-14 07:59N 29°36' W 094°57'511.2
2017-Nov-14 07:30N 29°31' W 094°53'1 0.2
2017-Nov-14 04:20N 29°32' W 094°54'411.7
2017-Nov-14 04:00N 29°35' W 094°56'3 6.2
2017-Nov-14 03:30N 29°37' W 094°59'1 2.4
2017-Nov-14 03:00N 29°37' W 095°01'0 0.9
2017-Nov-14 02:28N 29°37' W 095°01'0 0.0
2017-Nov-14 01:58N 29°37' W 095°01'0 0.0
2017-Nov-14 01:28N 29°37' W 095°01'0 0.0
2017-Nov-14 00:58N 29°37' W 095°01'0 0.0
2017-Nov-14 00:30N 29°37' W 095°01'0 0.7
2017-Nov-14 00:00N 29°37' W 095°02'1 1.3
2017-Nov-13 23:30N 29°37' W 095°01'2 3.5
2017-Nov-13 23:00N 29°37' W 094°59'4 7.5
2017-Nov-13 22:30N 29°41' W 094°59'8 0.4
2017-Nov-13 02:00N 29°45' W 095°07'0 0.0
2017-Nov-13 01:30N 29°45' W 095°07'3 4.9
2017-Nov-13 00:56N 29°45' W 095°10'0 0.0
2017-Nov-13 00:29N 29°45' W 095°10'1 2.6
2017-Nov-12 23:58N 29°44' W 095°08'2 0.6
2017-Nov-12 21:08N 29°44' W 095°07'1 8.6
2017-Nov-12 20:59N 29°45' W 095°06'4 3.0
2017-Nov-12 19:36N 29°44' W 095°01'0 1.2
2017-Nov-12 19:30N 29°44' W 095°01'1 2.4
2017-Nov-12 18:59N 29°42' W 095°01'0 0.0
2017-Nov-12 18:26N 29°42' W 095°01'1 3.1
2017-Nov-12 17:57N 29°44' W 095°01'1 2.4
2017-Nov-12 17:25N 29°42' W 095°01'0 0.4
2017-Nov-12 17:00N 29°42' W 095°01'0 0.0
2017-Nov-12 16:30N 29°42' W 095°01'0 0.0
2017-Nov-12 16:00N 29°42' W 095°01'0 0.3
2017-Nov-12 15:30N 29°42' W 095°01'0 0.0
2017-Nov-12 14:39N 29°42' W 095°01'0 1.0
2017-Nov-12 14:29N 29°42' W 095°01'0 0.0
2017-Nov-12 14:00N 29°42' W 095°01'0 0.0
2017-Nov-12 13:30N 29°42' W 095°01'0 0.0
2017-Nov-12 12:59N 29°42' W 095°01'4 9.1
2017-Nov-12 12:30N 29°39' W 094°58'3 3.3
2017-Nov-12 11:43N 29°37' W 094°60'1 5.9
2017-Nov-12 11:30N 29°37' W 094°59'4 7.8
2017-Nov-12 11:00N 29°41' W 094°59'3 0.6
2017-Nov-12 06:27N 29°42' W 095°01'0 0.0
2017-Nov-12 05:57N 29°42' W 095°01'0 0.0
2017-Nov-12 05:06N 29°42' W 095°01'0 0.0
2017-Nov-12 05:00N 29°42' W 095°01'0 0.0
2017-Nov-12 04:21N 29°42' W 095°01'0 0.0
2017-Nov-12 03:00N 29°42' W 095°01'0 0.0
2017-Nov-12 01:48N 29°42' W 095°01'0 0.0
2017-Nov-12 01:30N 29°42' W 095°01'0 0.0
2017-Nov-11 22:50N 29°42' W 095°01'1 1.5
2017-Nov-11 21:50N 29°44' W 095°01'1 3.1
2017-Nov-11 21:24N 29°42' W 095°01'2 4.3
2017-Nov-11 21:00N 29°41' W 094°60'1 0.9
2017-Nov-11 20:26N 29°41' W 095°01'1 2.5
2017-Nov-11 19:58N 29°42' W 095°00'1 1.0
2017-Nov-11 19:21N 29°42' W 095°01'0 0.0
2017-Nov-11 13:59N 29°42' W 095°01'6 1.3
2017-Nov-11 09:04N 29°44' W 095°08'1 8.9
2017-Nov-11 08:59N 29°44' W 095°09'2 1.3
2017-Nov-11 07:41N 29°45' W 095°11'0 1.6
2017-Nov-11 07:24N 29°45' W 095°10'1 3.3
2017-Nov-11 07:00N 29°44' W 095°09'1 1.9
2017-Nov-11 06:20N 29°45' W 095°10'0 0.0
2017-Nov-11 05:29N 29°45' W 095°10'1 0.9
2017-Nov-11 04:10N 29°45' W 095°11'0 0.2
2017-Nov-11 03:59N 29°45' W 095°11'1 2.9
2017-Nov-11 03:29N 29°45' W 095°10'0 0.9
2017-Nov-11 03:01N 29°45' W 095°10'0 0.0
2017-Nov-11 02:30N 29°45' W 095°10'0 0.7
2017-Nov-11 02:00N 29°45' W 095°10'3 0.6
2017-Nov-10 21:33N 29°45' W 095°07'0 0.0
2017-Nov-10 21:15N 29°45' W 095°07'0 0.0
2017-Nov-10 20:53N 29°45' W 095°07'0 0.0
2017-Nov-10 20:30N 29°45' W 095°07'0 0.0
2017-Nov-10 19:48N 29°45' W 095°07'0 0.0
2017-Nov-10 19:28N 29°45' W 095°07'0 0.2
2017-Nov-10 18:48N 29°45' W 095°06'3 5.4
2017-Nov-10 18:19N 29°44' W 095°03'3 7.1
2017-Nov-10 17:56N 29°42' W 095°01'2 4.1
2017-Nov-10 17:30N 29°41' W 095°00'0 0.2
2017-Nov-10 17:00N 29°41' W 095°00'2 3.6
2017-Nov-10 16:30N 29°40' W 094°59'1 2.3
2017-Nov-10 16:00N 29°41' W 094°59'0 0.0
2017-Nov-10 15:30N 29°41' W 094°59'0 0.0
2017-Nov-10 15:00N 29°41' W 094°59'0 0.0
2017-Nov-10 14:30N 29°41' W 094°59'0 0.0
2017-Nov-10 14:00N 29°41' W 094°59'0 0.1
2017-Nov-10 13:30N 29°41' W 094°59'1 2.0
2017-Nov-10 13:00N 29°41' W 095°00'2 3.3
2017-Nov-10 12:30N 29°42' W 095°01'5 7.4
2017-Nov-10 11:50N 29°45' W 095°05'2 0.2
2017-Nov-10 00:45N 29°44' W 095°08'0 0.2
2017-Nov-09 23:52N 29°44' W 095°08'0 0.0
2017-Nov-09 23:23N 29°44' W 095°08'0 0.0
2017-Nov-09 17:16N 29°44' W 095°08'0 0.0
2017-Nov-09 16:57N 29°44' W 095°08'1 0.3
2017-Nov-09 13:51N 29°44' W 095°07'3 5.6
2017-Nov-09 13:21N 29°44' W 095°03'3 7.6
2017-Nov-09 12:59N 29°42' W 095°01'3 6.3
2017-Nov-09 12:30N 29°40' W 094°59'3 5.5
2017-Nov-09 11:59N 29°42' W 095°01'0 0.0
2017-Nov-09 11:29N 29°42' W 095°01'0 0.0
2017-Nov-09 10:59N 29°42' W 095°01'0 0.0
2017-Nov-09 10:29N 29°42' W 095°01'0 0.0
2017-Nov-09 09:47N 29°42' W 095°01'0 0.0
2017-Nov-09 09:23N 29°42' W 095°01'0 0.0
2017-Nov-09 08:29N 29°42' W 095°01'0 0.0
2017-Nov-09 07:11N 29°42' W 095°01'0 0.0
2017-Nov-09 06:53N 29°42' W 095°01'0 0.0
2017-Nov-09 06:29N 29°42' W 095°01'0 0.0
2017-Nov-09 05:47N 29°42' W 095°01'0 0.0
2017-Nov-09 05:29N 29°42' W 095°01'0 0.7
2017-Nov-09 05:00N 29°43' W 095°01'5 1.7
2017-Nov-09 02:14N 29°46' W 095°05'2 7.9
2017-Nov-09 01:58N 29°44' W 095°03'2 1.5
2017-Nov-09 00:39N 29°44' W 095°01'2 3.3
2017-Nov-09 00:10N 29°42' W 095°01'0 0.7
2017-Nov-08 23:52N 29°42' W 095°01'0 0.0
2017-Nov-08 23:04N 29°42' W 095°01'0 0.0
2017-Nov-08 22:55N 29°42' W 095°01'0 0.0
2017-Nov-08 22:19N 29°42' W 095°01'0 0.0
2017-Nov-08 21:58N 29°42' W 095°01'0 0.2
2017-Nov-08 21:30N 29°42' W 095°01'0 0.1
2017-Nov-08 20:47N 29°42' W 095°01'3 8.0
2017-Nov-08 20:25N 29°44' W 095°03'2 3.9
2017-Nov-08 19:48N 29°45' W 095°06'0 0.0
2017-Nov-08 19:29N 29°45' W 095°06'2 3.2
2017-Nov-08 18:44N 29°44' W 095°03'2 7.7
2017-Nov-08 18:30N 29°44' W 095°02'2 4.3
2017-Nov-08 17:58N 29°42' W 094°60'1 2.3
2017-Nov-08 17:30N 29°41' W 094°60'0 0.2
2017-Nov-08 17:00N 29°41' W 095°00'2 3.8
2017-Nov-08 16:28N 29°39' W 094°58'4 7.7
2017-Nov-08 15:59N 29°42' W 095°01'0 0.0
2017-Nov-08 15:22N 29°42' W 095°01'0 0.0
2017-Nov-08 14:55N 29°42' W 095°01'0 0.0
2017-Nov-08 13:31N 29°42' W 095°01'0 0.0
2017-Nov-08 13:28N 29°42' W 095°01'0 0.0
2017-Nov-08 12:49N 29°42' W 095°01'0 0.0
2017-Nov-08 12:25N 29°42' W 095°01'0 0.0
2017-Nov-08 11:59N 29°42' W 095°01'2 2.2
2017-Nov-08 10:52N 29°44' W 095°03'2 1.9
2017-Nov-08 09:48N 29°43' W 095°01'1 1.1
2017-Nov-08 08:58N 29°44' W 095°01'3 5.4
2017-Nov-08 08:30N 29°42' W 094°60'1 0.1
2017-Nov-08 00:02N 29°41' W 094°59'0 0.3
2017-Nov-07 23:56N 29°41' W 094°59'0 0.9
2017-Nov-07 23:28N 29°41' W 094°60'1 1.6
2017-Nov-07 23:00N 29°41' W 094°59'4 6.7
2017-Nov-07 22:26N 29°37' W 094°59'1 2.3
2017-Nov-07 21:54N 29°37' W 095°00'0 0.0
2017-Nov-07 21:27N 29°37' W 095°00'0 0.0
2017-Nov-07 21:00N 29°37' W 095°00'0 0.0
2017-Nov-07 20:30N 29°37' W 095°00'0 0.0
2017-Nov-07 20:00N 29°37' W 095°00'1 0.7
2017-Nov-07 18:59N 29°37' W 094°59'1 2.2
2017-Nov-07 18:30N 29°37' W 095°01'1 1.0
2017-Nov-07 18:00N 29°37' W 095°01'0 0.0
2017-Nov-07 17:30N 29°37' W 095°01'  

Dump ship's entire track history